Time;durP1;ratioP1;P1;durP2;ratioP2;P2;SDS_P1;SDS_P2;PMS_P1;PMS_P2;Temp;Humidity;BMP_temperature;BMP_pressure;BME280_temperature;BME280_humidity;BME280_pressure;Samples;Min_cycle;Max_cycle;Signal;HPM_P1;HPM_P2
2022/05/03 00:00:04;;;;;;;5.37;3.65;;;;;;;12.41;66.41;99770.31;4436940;32;33587;-59
2022/05/03 00:02:35;;;;;;;6.75;3.30;;;;;;;12.36;66.15;99777.97;4449512;32;32126;-60
2022/05/03 00:05:04;;;;;;;8.20;3.97;;;;;;;12.35;66.40;99770.97;4449849;32;33902;-61
2022/05/03 00:07:31;;;;;;;8.32;4.03;;;;;;;12.45;66.17;99766.13;4441712;32;33621;-59
2022/05/03 00:10:13;;;;;;;5.18;3.42;;;;;;;12.51;66.31;99776.72;4449400;32;34604;-60
2022/05/03 00:12:59;;;;;;;6.62;4.10;;;;;;;12.30;67.26;99772.50;4437165;32;33418;-59
2022/05/03 00:15:28;;;;;;;6.72;4.30;;;;;;;12.22;67.69;99773.06;4434749;32;34740;-59
2022/05/03 00:17:55;;;;;;;6.62;4.15;;;;;;;12.28;67.55;99768.97;4446547;32;33385;-60
2022/05/03 00:20:23;;;;;;;9.85;3.67;;;;;;;12.55;66.43;99768.22;4448506;32;32802;-59
2022/05/03 00:22:51;;;;;;;5.85;3.45;;;;;;;12.43;66.61;99767.78;4448138;32;34318;-59
2022/05/03 00:25:19;;;;;;;6.70;3.53;;;;;;;12.33;66.92;99767.44;4449118;32;34576;-59
2022/05/03 00:27:46;;;;;;;6.72;3.17;;;;;;;12.37;67.16;99766.72;4434567;32;34580;-58
2022/05/03 00:30:14;;;;;;;6.85;4.12;;;;;;;12.46;66.89;99757.47;4436248;32;33915;-61
2022/05/03 00:32:41;;;;;;;6.40;4.18;;;;;;;12.36;67.26;99762.38;4448019;32;32021;-61
2022/05/03 00:35:09;;;;;;;7.15;4.00;;;;;;;12.42;67.21;99751.31;4436552;32;33653;-60
2022/05/03 00:37:37;;;;;;;6.45;3.95;;;;;;;12.59;66.48;99759.69;4429529;32;34010;-59
2022/05/03 00:40:05;;;;;;;8.27;3.97;;;;;;;12.90;65.30;99761.69;4434734;32;34524;-60
2022/05/03 00:42:52;;;;;;;6.85;3.67;;;;;;;13.36;63.62;99759.78;4450099;32;31935;-61
2022/05/03 00:45:55;;;;;;;9.88;3.80;;;;;;;13.96;61.74;99754.75;4435573;32;34333;-59
2022/05/03 00:48:51;;;;;;;7.68;3.70;;;;;;;14.22;60.82;99754.66;4386046;32;32359;-60
2022/05/03 00:51:27;;;;;;;6.12;3.55;;;;;;;13.58;62.75;99758.78;4418448;32;33690;-60
2022/05/03 00:54:16;;;;;;;6.05;3.72;;;;;;;13.56;63.27;99753.50;4439703;32;34131;-58
2022/05/03 00:57:07;;;;;;;7.18;3.87;;;;;;;13.31;64.21;99766.56;4448951;32;33313;-59
2022/05/03 00:59:47;;;;;;;5.82;3.70;;;;;;;13.67;62.94;99752.94;4435537;32;34526;-60
2022/05/03 01:02:20;;;;;;;6.93;4.30;;;;;;;13.45;63.64;99754.00;4450140;32;35759;-60
2022/05/03 01:05:01;;;;;;;7.37;3.97;;;;;;;13.15;64.62;99753.00;4434702;32;34140;-59
2022/05/03 01:07:35;;;;;;;6.68;4.28;;;;;;;12.85;65.59;99751.97;4448857;32;33566;-60
2022/05/03 01:10:19;;;;;;;5.65;3.50;;;;;;;12.59;66.45;99751.91;4449792;32;33988;-60
2022/05/03 01:12:57;;;;;;;6.40;4.18;;;;;;;12.06;69.26;99745.62;4440382;32;33489;-60
2022/05/03 01:15:27;;;;;;;8.00;4.20;;;;;;;11.88;70.41;99754.47;4436279;32;34210;-60
2022/05/03 01:18:10;;;;;;;6.57;4.20;;;;;;;11.87;70.42;99755.28;4448857;32;31826;-58
2022/05/03 01:20:58;;;;;;;7.35;4.03;;;;;;;11.92;70.17;99756.38;4450106;32;34518;-59
2022/05/03 01:23:45;;;;;;;6.32;4.03;;;;;;;11.92;70.51;99758.97;4449796;32;33826;-60
2022/05/03 01:26:35;;;;;;;8.05;3.92;;;;;;;11.94;70.32;99762.50;4450578;32;32105;-59
2022/05/03 01:29:14;;;;;;;7.28;3.97;;;;;;;12.03;69.82;99755.91;4450737;32;34426;-60
2022/05/03 01:31:41;;;;;;;7.12;3.67;;;;;;;12.17;69.29;99760.78;4443755;32;33871;-60
2022/05/03 01:34:13;;;;;;;7.35;3.90;;;;;;;12.53;67.86;99756.87;4449735;32;33167;-60
2022/05/03 01:36:59;;;;;;;8.77;4.37;;;;;;;12.59;67.64;99759.69;4449359;32;33372;-59
2022/05/03 01:39:49;;;;;;;7.75;3.72;;;;;;;12.62;67.38;99757.22;4448644;32;33732;-61
2022/05/03 01:42:39;;;;;;;7.10;4.20;;;;;;;13.02;66.03;99761.22;4449798;32;33876;-61
2022/05/03 01:45:10;;;;;;;6.50;4.05;;;;;;;12.71;66.69;99754.97;4449466;32;34285;-58
2022/05/03 01:47:59;;;;;;;8.98;4.15;;;;;;;12.10;69.30;99757.91;4450110;32;34395;-60
2022/05/03 01:50:32;;;;;;;6.53;3.67;;;;;;;11.99;69.92;99755.81;4448426;32;33906;-60
2022/05/03 01:53:14;;;;;;;6.32;3.95;;;;;;;11.83;70.64;99768.09;4441762;32;33667;-58
2022/05/03 01:56:01;;;;;;;8.43;5.07;;;;;;;11.67;71.33;99762.28;4448594;32;34495;-60
2022/05/03 01:58:50;;;;;;;6.70;3.83;;;;;;;11.59;71.77;99764.56;4446538;32;31801;-59
2022/05/03 02:01:34;;;;;;;6.78;3.78;;;;;;;11.81;71.10;99765.41;4450063;32;32546;-59
2022/05/03 02:04:07;;;;;;;5.67;4.10;;;;;;;11.88;70.73;99757.06;4410356;32;33554;-84
2022/05/03 02:06:47;;;;;;;6.12;3.92;;;;;;;11.87;70.87;99764.78;4442341;26;33459;-60
2022/05/03 02:09:14;;;;;;;11.60;4.50;;;;;;;11.99;70.40;99754.88;4404676;32;35655;-60
2022/05/03 02:12:05;;;;;;;6.07;4.07;;;;;;;12.45;68.66;99755.72;4419628;32;34076;-60
2022/05/03 02:14:44;;;;;;;6.10;4.00;;;;;;;12.12;69.58;99756.25;4419945;32;34759;-60
2022/05/03 02:17:37;;;;;;;6.68;4.00;;;;;;;12.68;67.45;99762.63;4420076;32;34025;-60
2022/05/03 02:20:29;;;;;;;5.87;3.60;;;;;;;12.93;66.82;99759.19;4419967;32;33022;-60
2022/05/03 02:23:25;;;;;;;6.28;3.80;;;;;;;12.29;69.20;99759.50;4420487;32;35133;-60
2022/05/03 02:26:30;;;;;;;7.25;3.90;;;;;;;11.78;71.19;99750.63;4418385;32;34776;-60
2022/05/03 02:29:04;;;;;;;7.80;4.20;;;;;;;11.71;71.79;99763.31;4405784;32;33322;-60
2022/05/03 02:31:48;;;;;;;5.97;3.53;;;;;;;11.57;72.21;99760.13;4406636;32;33973;-60
2022/05/03 02:34:25;;;;;;;7.65;4.05;;;;;;;11.43;72.83;99767.38;4406295;32;34000;-60
2022/05/03 02:37:08;;;;;;;6.68;4.32;;;;;;;11.53;72.45;99766.03;4405644;32;33946;-60
2022/05/03 02:39:38;;;;;;;6.30;4.05;;;;;;;11.54;72.13;99757.44;4419827;32;34185;-60
2022/05/03 02:42:08;;;;;;;6.78;3.72;;;;;;;11.46;72.20;99767.50;4408572;32;33407;-60
2022/05/03 02:44:37;;;;;;;6.65;4.00;;;;;;;11.73;70.98;99761.66;4405933;32;33826;-60
2022/05/03 02:47:05;;;;;;;6.12;4.47;;;;;;;11.79;70.42;99761.88;4418722;32;33929;-60
2022/05/03 02:49:39;;;;;;;6.70;4.10;;;;;;;11.65;71.06;99765.63;4416892;32;33645;-60
2022/05/03 02:52:23;;;;;;;9.80;4.12;;;;;;;11.47;71.96;99764.06;4419445;32;33153;-60
2022/05/03 02:55:08;;;;;;;7.35;4.32;;;;;;;11.33;72.25;99770.41;4419692;32;34262;-60
2022/05/03 02:57:47;;;;;;;7.82;4.00;;;;;;;11.27;72.58;99770.16;4418918;32;34539;-60
2022/05/03 03:03:28;;;;;;;7.37;4.20;;;;;;;11.07;73.37;99767.63;4421449;32;34460;-60
2022/05/03 03:06:00;;;;;;;8.48;4.28;;;;;;;10.78;74.52;99769.84;4423584;32;33788;-60
2022/05/03 03:08:44;;;;;;;7.45;4.55;;;;;;;10.61;75.21;99770.81;4413926;32;34636;-60
2022/05/03 03:11:16;;;;;;;7.95;4.30;;;;;;;10.62;75.25;99765.72;4422039;32;33624;-60
2022/05/03 03:14:03;;;;;;;6.75;3.90;;;;;;;10.99;73.50;99774.16;4407974;32;33239;-60
2022/05/03 03:16:32;;;;;;;8.15;4.12;;;;;;;11.07;73.01;99775.41;4423182;32;33341;-60
2022/05/03 03:19:07;;;;;;;10.80;4.35;;;;;;;11.14;72.41;99769.62;4419171;32;34053;-60
2022/05/03 03:21:35;;;;;;;5.87;3.90;;;;;;;11.30;71.57;99767.69;4395561;32;33856;-60
2022/05/03 03:24:04;;;;;;;6.25;3.87;;;;;;;11.63;70.17;99764.69;4408817;32;34158;-60
2022/05/03 03:26:32;;;;;;;7.25;4.25;;;;;;;12.29;67.94;99768.16;4421547;32;33826;-60
2022/05/03 03:29:04;;;;;;;8.43;4.65;;;;;;;11.59;70.10;99774.97;4409949;32;33856;-60
2022/05/03 03:31:32;;;;;;;8.80;4.57;;;;;;;11.61;70.55;99768.12;4409616;32;32144;-60
2022/05/03 03:34:01;;;;;;;7.28;4.70;;;;;;;11.11;72.33;99766.94;4409757;32;32923;-60
2022/05/03 03:36:29;;;;;;;9.93;4.87;;;;;;;11.33;71.21;99776.47;4422782;32;33391;-60
2022/05/03 03:38:56;;;;;;;7.50;4.45;;;;;;;11.43;71.40;99777.72;4423987;32;33931;-60
2022/05/03 03:41:24;;;;;;;7.90;4.57;;;;;;;10.85;73.20;99775.31;4406026;32;33797;-60
2022/05/03 03:43:53;;;;;;;10.52;4.90;;;;;;;10.62;74.27;99775.16;4408605;32;33885;-60
2022/05/03 03:46:20;;;;;;;10.05;4.68;;;;;;;10.55;74.55;99770.56;4409581;32;33222;-60
2022/05/03 03:48:48;;;;;;;9.00;4.62;;;;;;;10.42;75.35;99770.00;4407710;32;33652;-60
2022/05/03 03:51:16;;;;;;;7.25;4.10;;;;;;;10.27;75.80;99769.28;4423410;32;34492;-60
2022/05/03 03:53:43;;;;;;;8.52;4.62;;;;;;;10.32;75.41;99783.34;4423233;32;33796;-60
2022/05/03 03:56:11;;;;;;;9.52;4.90;;;;;;;10.25;75.58;99776.09;4408380;32;34548;-60
2022/05/03 03:58:38;;;;;;;7.20;4.62;;;;;;;10.36;75.11;99782.69;4422810;32;32517;-60
2022/05/03 04:01:06;;;;;;;7.37;4.37;;;;;;;10.38;75.21;99788.81;4423052;32;34552;-60
2022/05/03 04:03:36;;;;;;;7.32;4.35;;;;;;;10.28;75.59;99781.41;4422730;32;33186;-60
2022/05/03 04:06:04;;;;;;;8.85;5.03;;;;;;;10.30;75.35;99785.00;4396582;32;34392;-60
2022/05/03 04:08:31;;;;;;;8.07;4.65;;;;;;;10.50;74.64;99787.59;4421901;32;35205;-60
2022/05/03 04:11:12;;;;;;;8.07;4.87;;;;;;;10.63;73.94;99789.91;4420370;32;33657;-60
2022/05/03 04:13:40;;;;;;;6.97;3.90;;;;;;;10.66;73.95;99792.63;4409218;32;34053;-60
2022/05/03 04:16:08;;;;;;;7.47;4.30;;;;;;;10.86;72.76;99795.22;4421938;32;33836;-60
2022/05/03 04:18:45;;;;;;;6.60;4.30;;;;;;;10.77;73.17;99793.97;4422665;32;33804;-60
2022/05/03 04:21:17;;;;;;;6.68;4.40;;;;;;;10.79;72.87;99794.06;4421209;32;34417;-60
2022/05/03 04:23:45;;;;;;;9.10;4.55;;;;;;;11.18;71.36;99792.31;4424632;32;34025;-60
2022/05/03 04:26:13;;;;;;;8.30;4.30;;;;;;;11.29;70.97;99799.62;4409096;32;33981;-60
2022/05/03 04:28:41;;;;;;;8.75;4.37;;;;;;;11.07;71.60;99796.16;4423958;32;33595;-60
2022/05/03 04:31:08;;;;;;;6.50;4.32;;;;;;;11.04;71.94;99797.72;4422015;32;33863;-60
2022/05/03 04:33:36;;;;;;;7.47;5.28;;;;;;;11.18;71.29;99792.31;4422559;32;33324;-60
2022/05/03 04:36:04;;;;;;;8.13;4.68;;;;;;;10.87;72.73;99789.22;4422447;32;33974;-60
2022/05/03 04:38:32;;;;;;;8.75;5.03;;;;;;;10.74;73.62;99792.94;4421601;32;33821;-60
2022/05/03 04:41:00;;;;;;;7.55;4.40;;;;;;;10.96;72.98;99790.50;4421797;32;34894;-60
2022/05/03 04:43:28;;;;;;;7.47;4.55;;;;;;;11.00;72.99;99788.91;4422522;32;33612;-60
2022/05/03 04:45:56;;;;;;;8.60;4.87;;;;;;;11.07;72.50;99798.72;4407837;32;34052;-60
2022/05/03 04:48:23;;;;;;;9.57;4.70;;;;;;;11.09;72.79;99797.09;4408157;32;33252;-60
2022/05/03 04:50:51;;;;;;;8.43;4.62;;;;;;;11.48;71.24;99791.78;4422808;32;33756;-60
2022/05/03 04:53:19;;;;;;;13.07;4.87;;;;;;;11.39;71.03;99791.41;4422823;32;33180;-60
2022/05/03 04:55:46;;;;;;;8.60;5.15;;;;;;;11.43;71.29;99793.28;4417560;32;32431;-60
2022/05/03 04:58:14;;;;;;;8.77;4.43;;;;;;;11.61;70.49;99809.63;4423238;32;33814;-60
2022/05/03 05:00:42;;;;;;;8.18;4.87;;;;;;;11.64;70.48;99813.16;4419917;32;33887;-60
2022/05/03 05:03:10;;;;;;;7.10;4.43;;;;;;;11.67;70.43;99809.00;4422879;32;34263;-60
2022/05/03 05:05:37;;;;;;;6.87;4.53;;;;;;;11.71;70.37;99810.00;4420860;32;34575;-60
2022/05/03 05:08:06;;;;;;;8.40;4.80;;;;;;;11.64;70.33;99818.34;4420935;32;33945;-60
2022/05/03 05:10:34;;;;;;;8.13;4.68;;;;;;;11.67;70.82;99811.59;4421628;32;33268;-60
2022/05/03 05:13:02;;;;;;;9.77;4.53;;;;;;;12.37;68.37;99800.50;4420023;32;34002;-60
2022/05/03 05:15:36;;;;;;;6.30;4.05;;;;;;;12.50;67.22;99808.75;4411155;32;34730;-60
2022/05/03 05:18:03;;;;;;;8.27;4.50;;;;;;;13.32;64.79;99812.53;4421281;32;34574;-60
2022/05/03 05:20:31;;;;;;;6.75;4.47;;;;;;;13.33;65.24;99809.13;4421712;32;33781;-60
2022/05/03 05:22:58;;;;;;;7.12;4.70;;;;;;;13.43;64.81;99803.37;4424366;32;33513;-61
2022/05/03 05:25:49;;;;;;;7.97;4.87;;;;;;;13.43;65.19;99795.56;4410952;32;32853;-60
2022/05/03 05:28:18;;;;;;;8.73;4.60;;;;;;;14.19;62.69;99801.44;4404421;32;33048;-60
2022/05/03 05:30:46;;;;;;;8.20;4.50;;;;;;;14.38;62.16;99800.25;4401987;32;34141;-60
2022/05/03 05:33:13;;;;;;;7.93;4.03;;;;;;;14.86;60.90;99799.03;4421509;32;34059;-60
2022/05/03 05:35:41;;;;;;;8.77;5.12;;;;;;;14.95;60.21;99799.31;4418746;32;34693;-60
2022/05/03 05:38:08;;;;;;;9.20;5.03;;;;;;;15.73;58.03;99796.09;4422642;32;33661;-61
2022/05/03 05:40:36;;;;;;;9.77;4.82;;;;;;;16.23;56.22;99792.00;4412090;32;33940;-60
2022/05/03 05:43:04;;;;;;;9.40;4.68;;;;;;;16.01;57.77;99795.84;4421241;32;34147;-60
2022/05/03 05:45:31;;;;;;;8.63;5.10;;;;;;;16.30;56.74;99794.78;4422236;32;33615;-61
2022/05/03 05:47:58;;;;;;;8.13;5.15;;;;;;;16.29;57.12;99797.34;4421644;32;33734;-60
2022/05/03 05:50:27;;;;;;;10.80;5.05;;;;;;;16.10;57.77;99790.81;4405967;32;34645;-61
2022/05/03 05:55:42;;;;;;;9.77;5.20;;;;;;;15.46;58.63;99801.47;4421411;32;34324;-61
2022/05/03 05:58:10;;;;;;;7.70;5.20;;;;;;;15.08;59.98;99800.50;4421561;32;34662;-61
2022/05/03 06:00:37;;;;;;;8.77;5.10;;;;;;;15.62;58.16;99805.34;4420154;32;33790;-60
2022/05/03 06:03:08;;;;;;;11.95;4.87;;;;;;;15.80;56.99;99791.00;4421946;32;33564;-60
2022/05/03 06:05:37;;;;;;;8.38;4.95;;;;;;;15.88;56.21;99789.47;4423225;32;33828;-61
2022/05/03 06:08:06;;;;;;;9.75;4.97;;;;;;;16.38;55.42;99791.41;4423357;32;33847;-61
2022/05/03 06:10:33;;;;;;;8.07;4.10;;;;;;;16.95;55.72;99798.69;4410251;32;34477;-61
2022/05/03 06:13:02;;;;;;;7.28;4.60;;;;;;;17.37;54.38;99795.09;4418080;32;33527;-61
2022/05/03 06:15:30;;;;;;;8.25;4.68;;;;;;;17.59;53.42;99792.84;4414753;32;34401;-61
2022/05/03 06:17:58;;;;;;;7.50;4.78;;;;;;;17.78;53.24;99781.78;4422127;32;33628;-61
2022/05/03 06:20:27;;;;;;;11.40;4.87;;;;;;;18.00;53.17;99792.63;4407760;32;33925;-61
2022/05/03 06:22:54;;;;;;;7.87;4.72;;;;;;;17.95;53.33;99797.81;4414379;32;34149;-61
2022/05/03 06:25:23;;;;;;;9.18;4.82;;;;;;;18.17;53.81;99793.75;4416828;32;33597;-61
2022/05/03 06:27:51;;;;;;;7.32;4.97;;;;;;;18.22;53.02;99794.69;4407420;32;34591;-61
2022/05/03 06:30:18;;;;;;;12.43;4.93;;;;;;;18.54;52.29;99802.09;4409786;32;33720;-61
2022/05/03 06:32:46;;;;;;;9.05;5.25;;;;;;;18.21;52.54;99792.91;4423091;32;33883;-61
2022/05/03 06:35:14;;;;;;;11.10;5.40;;;;;;;18.67;52.58;99798.75;4408633;32;34730;-61
2022/05/03 06:37:42;;;;;;;11.85;5.18;;;;;;;18.56;52.32;99799.50;4418179;32;33640;-61
2022/05/03 06:40:10;;;;;;;8.48;5.75;;;;;;;19.01;51.41;99799.19;4415690;32;33496;-61
2022/05/03 06:42:39;;;;;;;9.02;5.53;;;;;;;18.62;52.06;99800.47;4397641;32;33286;-61
2022/05/03 06:45:08;;;;;;;8.95;5.55;;;;;;;19.08;50.04;99801.84;4410702;32;33923;-61
2022/05/03 06:47:48;;;;;;;7.97;4.85;;;;;;;19.23;49.25;99812.53;4418726;32;33481;-61
2022/05/03 06:50:16;;;;;;;7.60;5.10;;;;;;;19.31;47.19;99802.97;4408305;32;33321;-61
2022/05/03 06:52:44;;;;;;;6.97;4.70;;;;;;;19.26;47.59;99802.06;4424847;32;33532;-61
2022/05/03 06:55:11;;;;;;;8.95;4.70;;;;;;;19.66;45.91;99799.75;4424009;32;34511;-61
2022/05/03 06:57:39;;;;;;;7.90;5.18;;;;;;;19.54;45.97;99794.41;4407723;32;33820;-61
2022/05/03 07:00:08;;;;;;;10.25;4.93;;;;;;;19.45;46.17;99801.34;4422783;32;33397;-61
2022/05/03 07:02:36;;;;;;;8.68;4.70;;;;;;;20.06;44.41;99792.19;4421462;32;33381;-61
2022/05/03 07:05:04;;;;;;;10.55;4.78;;;;;;;19.58;46.34;99806.69;4422600;32;33737;-61
2022/05/03 07:07:33;;;;;;;9.27;4.37;;;;;;;20.11;45.55;99793.09;4423140;32;35752;-61
2022/05/03 07:10:01;;;;;;;8.38;4.93;;;;;;;20.01;44.95;99786.00;4419539;32;34508;-61
2022/05/03 07:12:30;;;;;;;11.82;4.70;;;;;;;19.94;45.64;99794.75;4421812;32;33385;-61
2022/05/03 07:15:04;;;;;;;6.25;4.12;;;;;;;20.45;44.77;99797.66;4422645;32;33113;-61
2022/05/03 07:23:06;;;;;;;7.47;4.55;;;;;;;20.32;45.14;99796.69;4423606;32;34070;-61
2022/05/03 07:25:35;;;;;;;13.60;5.32;;;;;;;20.38;45.14;99795.00;4410256;32;33799;-60
2022/05/03 07:28:03;;;;;;;7.22;4.40;;;;;;;20.35;45.79;99796.72;4408036;32;34753;-61
2022/05/03 07:30:31;;;;;;;7.43;3.72;;;;;;;19.72;43.49;99797.22;4417012;32;34643;-61
2022/05/03 07:32:58;;;;;;;6.78;4.37;;;;;;;20.49;43.68;99796.78;4422896;32;33425;-61
2022/05/03 07:35:26;;;;;;;6.87;4.03;;;;;;;21.00;42.65;99797.88;4421002;32;34010;-61
2022/05/03 07:37:54;;;;;;;8.25;4.70;;;;;;;21.77;40.44;99793.56;4418939;32;33651;-61
2022/05/03 07:40:21;;;;;;;7.35;3.30;;;;;;;21.27;40.08;99796.19;4422731;32;33945;-61
2022/05/03 07:42:49;;;;;;;7.00;3.50;;;;;;;21.90;38.91;99794.41;4422745;32;33437;-61
2022/05/03 07:45:17;;;;;;;7.70;3.95;;;;;;;22.05;39.25;99804.06;4419532;32;34004;-61
2022/05/03 07:47:44;;;;;;;5.62;2.97;;;;;;;21.46;38.28;99798.00;4408775;32;34012;-61
2022/05/03 07:50:12;;;;;;;7.60;3.62;;;;;;;22.17;38.23;99793.53;4420940;32;34546;-61
2022/05/03 07:52:39;;;;;;;8.02;3.17;;;;;;;22.29;37.48;99797.00;4422260;32;33406;-61
2022/05/03 07:55:08;;;;;;;7.05;3.50;;;;;;;22.68;36.96;99795.13;4405898;32;32782;-61
2022/05/03 07:57:35;;;;;;;6.95;3.20;;;;;;;23.14;35.80;99794.87;4406391;32;34705;-61
2022/05/03 08:00:08;;;;;;;6.03;2.80;;;;;;;21.74;37.67;99796.22;4409311;32;34763;-61
2022/05/03 08:02:36;;;;;;;6.22;3.10;;;;;;;21.92;35.98;99791.78;4423208;32;33436;-61
2022/05/03 08:05:03;;;;;;;4.15;2.60;;;;;;;21.96;36.51;99793.53;4422492;32;33980;-61
2022/05/03 08:07:31;;;;;;;4.53;2.83;;;;;;;21.35;36.85;99797.94;4419813;32;34719;-61
2022/05/03 08:09:59;;;;;;;6.03;2.50;;;;;;;22.97;35.84;99790.56;4406369;32;34659;-61
2022/05/03 08:12:26;;;;;;;5.53;2.72;;;;;;;23.42;34.11;99797.34;4422380;32;33362;-61
2022/05/03 08:14:56;;;;;;;6.70;2.50;;;;;;;24.25;33.19;99783.34;4421995;32;33955;-61
2022/05/03 08:17:25;;;;;;;5.65;2.50;;;;;;;24.44;31.00;99787.53;4411343;32;33913;-61
2022/05/03 08:19:53;;;;;;;5.12;2.87;;;;;;;23.61;32.88;99783.06;4422845;32;33632;-61
2022/05/03 08:22:21;;;;;;;4.95;2.70;;;;;;;24.02;33.53;99792.41;4422884;32;34149;-61
2022/05/03 08:24:48;;;;;;;5.78;2.70;;;;;;;24.28;32.29;99786.84;4422133;32;33859;-61
2022/05/03 08:27:16;;;;;;;6.12;2.97;;;;;;;24.13;34.74;99790.53;4421761;32;34709;-61
2022/05/03 08:29:43;;;;;;;7.60;3.00;;;;;;;23.39;32.66;99802.63;4422560;32;34729;-61
2022/05/03 08:32:11;;;;;;;4.25;2.55;;;;;;;23.45;33.29;99786.72;4412304;32;34155;-61
2022/05/03 08:34:39;;;;;;;5.72;2.65;;;;;;;23.11;33.86;99794.91;4409503;32;33952;-61
2022/05/03 08:42:39;;;;;;;7.00;2.53;;;;;;;22.92;34.12;99794.97;4414530;32;33634;-61
2022/05/03 08:45:09;;;;;;;3.60;2.10;;;;;;;23.81;33.31;99789.97;4407154;32;33731;-61
2022/05/03 08:47:38;;;;;;;7.78;2.45;;;;;;;24.73;30.07;99786.31;4414815;32;33788;-61
2022/05/03 08:50:12;;;;;;;4.15;2.17;;;;;;;24.43;31.08;99783.12;4411749;32;34008;-61
2022/05/03 08:52:47;;;;;;;5.68;2.12;;;;;;;23.80;31.74;99790.84;4408684;32;34049;-61
2022/05/03 08:55:14;;;;;;;;;;;;;;;23.08;30.73;99784.34;4416701;32;33987;-61
2022/05/03 08:57:43;;;;;;;5.40;2.25;;;;;;;24.14;30.67;99787.00;4415888;32;34955;-61
2022/05/03 09:00:12;;;;;;;8.88;2.72;;;;;;;24.56;30.46;99777.72;4418536;32;33777;-61
2022/05/03 09:02:54;;;;;;;5.97;2.40;;;;;;;24.99;30.09;99782.44;4408657;32;31930;-61
2022/05/03 09:05:23;;;;;;;5.80;2.90;;;;;;;25.33;29.93;99781.97;4419476;32;34044;-61
2022/05/03 09:07:53;;;;;;;5.43;2.50;;;;;;;25.75;29.15;99779.47;4416438;32;33609;-61
2022/05/03 09:10:22;;;;;;;5.22;2.42;;;;;;;25.27;29.45;99783.81;4418243;32;34134;-61
2022/05/03 09:12:50;;;;;;;5.05;2.20;;;;;;;24.90;31.34;99779.03;4417827;32;33406;-61
2022/05/03 09:15:32;;;;;;;6.55;2.53;;;;;;;25.59;30.25;99777.09;4414216;32;33986;-61
2022/05/03 09:18:00;;;;;;;4.75;2.62;;;;;;;25.72;29.54;99775.09;4409146;32;34701;-61
2022/05/03 09:26:20;;;;;;;5.22;2.30;;;;;;;26.49;28.15;99763.91;4410864;32;33569;-61
2022/05/03 09:28:52;;;;;;;4.43;2.35;;;;;;;25.62;29.99;99766.44;4417841;32;33942;-61
2022/05/03 09:31:43;;;;;;;4.97;2.60;;;;;;;24.65;30.19;99767.03;4405745;32;32553;-61
2022/05/03 09:34:18;;;;;;;5.25;2.42;;;;;;;25.34;30.67;99765.13;4388971;32;33079;-60
2022/05/03 09:36:45;;;;;;;;;;;;;;;23.69;32.72;99762.72;4412179;32;33754;-62
2022/05/03 09:39:43;;;;;;;6.93;2.75;;;;;;;23.77;32.35;99761.78;4415709;32;35116;-60
2022/05/03 09:42:16;;;;;;;5.22;2.75;;;;;;;23.59;32.46;99761.06;4418742;32;34826;-61
2022/05/03 09:44:53;;;;;;;3.90;2.45;;;;;;;24.55;32.78;99765.37;4411875;32;34361;-61
2022/05/03 09:47:23;;;;;;;7.93;2.90;;;;;;;24.67;30.89;99754.63;4419008;32;33737;-61
2022/05/03 09:49:51;;;;;;;7.35;3.03;;;;;;;24.17;31.56;99756.09;4415148;32;35645;-61
2022/05/03 09:52:36;;;;;;;5.43;2.83;;;;;;;23.87;31.88;99755.53;4415767;32;33989;-61
2022/05/03 09:55:09;;;;;;;4.90;3.10;;;;;;;24.59;31.40;99753.84;4417557;32;33253;-61
2022/05/03 09:57:38;;;;;;;8.25;2.75;;;;;;;23.70;33.60;99758.31;4417991;32;33944;-60
2022/05/03 10:00:08;;;;;;;6.32;2.85;;;;;;;23.18;33.78;99754.34;4415935;32;33830;-61
2022/05/03 10:02:42;;;;;;;4.22;2.55;;;;;;;23.40;33.79;99744.47;4417207;32;34444;-60
2022/05/03 10:05:15;;;;;;;4.40;2.30;;;;;;;24.67;31.23;99738.75;4406907;32;33435;-60
2022/05/03 10:07:43;;;;;;;5.90;3.00;;;;;;;24.32;33.45;99732.09;4420119;32;33837;-61
2022/05/03 10:10:13;;;;;;;5.57;2.72;;;;;;;23.00;33.46;99743.88;4418008;32;32880;-60
2022/05/03 10:12:42;;;;;;;6.32;2.70;;;;;;;22.42;34.24;99740.66;4421835;32;36231;-61
2022/05/03 10:15:10;;;;;;;7.03;2.50;;;;;;;22.91;33.50;99735.13;4418975;32;34371;-61
2022/05/03 10:20:40;;;;;;;6.90;2.60;;;;;;;24.46;31.21;99723.97;4411377;32;33162;-61
2022/05/03 10:23:24;;;;;;;6.25;2.65;;;;;;;24.79;30.32;99725.31;4417206;32;34836;-61
2022/05/03 10:25:53;;;;;;;7.68;3.08;;;;;;;25.45;31.01;99724.28;4399643;32;34206;-61
2022/05/03 10:28:21;;;;;;;9.73;2.90;;;;;;;25.87;28.12;99715.59;4416509;32;34853;-61
2022/05/03 10:31:13;;;;;;;6.70;2.80;;;;;;;25.76;28.96;99720.22;4419378;32;33355;-61
2022/05/03 10:33:42;;;;;;;3.53;2.22;;;;;;;23.75;30.62;99722.12;4407197;32;33974;-61
2022/05/03 10:36:30;;;;;;;6.62;3.28;;;;;;;24.40;32.20;99722.28;4419730;32;34242;-61
2022/05/03 10:39:05;;;;;;;4.43;2.67;;;;;;;23.37;32.86;99723.34;4416530;32;33849;-61
2022/05/03 10:41:54;;;;;;;13.23;3.03;;;;;;;24.00;32.68;99720.13;4407478;32;34442;-61
2022/05/03 10:44:57;;;;;;;4.57;2.65;;;;;;;22.50;33.31;99733.63;4423229;32;34004;-61
2022/05/03 10:47:52;;;;;;;4.43;2.22;;;;;;;21.83;35.80;99726.78;4408918;32;31767;-61
2022/05/03 10:50:20;;;;;;;;;;;;;;;22.52;33.16;99738.84;4409666;32;34436;-61
2022/05/03 10:52:53;;;;;;;5.00;2.80;;;;;;;22.53;35.94;99743.28;4423567;32;34171;-61
2022/05/03 10:55:22;;;;;;;7.28;3.50;;;;;;;22.37;36.60;99739.84;4422619;32;32839;-60
2022/05/03 10:58:25;;;;;;;6.22;2.95;;;;;;;21.46;39.16;99734.75;4418787;32;33968;-60
2022/05/03 11:01:23;;;;;;;6.05;3.42;;;;;;;21.00;38.79;99751.34;4420572;32;33773;-60
2022/05/03 11:03:54;;;;;;;11.07;3.80;;;;;;;20.81;40.47;99757.47;4414816;32;34437;-60
2022/05/03 11:06:22;;;;;;;9.30;3.50;;;;;;;19.98;46.23;99744.81;4419478;32;34390;-60
2022/05/03 11:09:09;;;;;;;6.53;3.35;;;;;;;19.69;45.33;99741.97;4424213;32;33408;-60
2022/05/03 11:11:43;;;;;;;9.45;2.97;;;;;;;19.18;45.88;99745.94;4423396;32;33550;-60
2022/05/03 11:14:14;;;;;;;5.22;2.47;;;;;;;18.64;42.57;99730.53;4424090;32;33919;-60
2022/05/03 11:16:43;;;;;;;4.90;2.35;;;;;;;18.17;43.93;99733.44;4424092;32;34006;-61
2022/05/03 11:19:17;;;;;;;9.27;2.25;;;;;;;17.97;44.05;99724.44;4415938;32;33410;-60
2022/05/03 11:21:47;;;;;;;4.75;1.70;;;;;;;17.78;45.99;99747.72;4423281;32;33718;-60
2022/05/03 11:24:22;;;;;;;2.65;1.35;;;;;;;17.99;41.75;99701.78;4422803;32;33798;-59
2022/05/03 11:26:56;;;;;;;2.12;1.00;;;;;;;18.14;35.31;99736.03;4422658;32;34101;-59
2022/05/03 11:29:28;;;;;;;3.03;1.37;;;;;;;18.70;37.26;99727.09;4415486;32;34294;-59
2022/05/03 11:31:59;;;;;;;4.57;1.75;;;;;;;18.82;35.65;99723.75;4416968;32;33757;-59
2022/05/03 11:34:27;;;;;;;4.50;1.80;;;;;;;18.74;37.44;99714.88;4419909;32;32995;-60
2022/05/03 11:36:55;;;;;;;4.20;1.80;;;;;;;18.76;41.16;99729.78;4421810;32;33594;-60
2022/05/03 11:39:23;;;;;;;2.60;1.45;;;;;;;18.34;42.37;99735.41;4423335;32;32917;-60
2022/05/03 11:41:51;;;;;;;3.90;1.42;;;;;;;18.26;41.76;99738.81;4408443;32;34565;-60
2022/05/03 11:44:19;;;;;;;6.68;1.87;;;;;;;18.26;40.31;99728.31;4407811;32;33551;-60
2022/05/03 11:46:48;;;;;;;4.90;1.50;;;;;;;18.28;40.75;99726.59;4423165;32;33942;-60
2022/05/03 11:49:17;;;;;;;3.60;1.80;;;;;;;18.24;41.55;99719.56;4409128;32;34202;-61
2022/05/03 11:57:42;;;;;;;3.92;2.28;;;;;;;18.86;40.68;99712.41;4399266;32;33652;-61
2022/05/03 12:00:12;;;;;;;6.40;1.87;;;;;;;19.25;39.07;99704.00;4409554;32;33689;-61
2022/05/03 12:02:42;;;;;;;2.97;1.48;;;;;;;19.68;38.98;99698.16;4422174;32;33099;-61
2022/05/03 12:05:11;;;;;;;3.70;1.70;;;;;;;20.03;38.86;99694.91;4423895;32;33936;-59
2022/05/03 12:07:46;;;;;;;4.00;1.67;;;;;;;20.89;36.48;99694.28;4420588;32;33760;-60
2022/05/03 12:10:18;;;;;;;3.17;1.48;;;;;;;20.93;34.61;99690.78;4423198;32;33735;-60
2022/05/03 12:12:47;;;;;;;4.93;1.50;;;;;;;21.05;35.67;99689.91;4411778;32;33659;-60
2022/05/03 12:15:19;;;;;;;3.97;1.73;;;;;;;21.50;34.50;99682.88;4417266;32;34573;-60
2022/05/03 12:17:57;;;;;;;5.30;1.35;;;;;;;22.22;34.70;99684.44;4406031;32;32608;-60
2022/05/03 12:20:39;;;;;;;5.00;1.83;;;;;;;22.01;34.98;99686.28;4416320;32;34168;-59
2022/05/03 12:23:17;;;;;;;3.10;1.77;;;;;;;20.94;35.85;99687.28;4422100;32;33841;-60
2022/05/03 12:25:47;;;;;;;3.83;1.65;;;;;;;22.16;36.02;99691.50;4412292;32;33680;-59
2022/05/03 12:28:16;;;;;;;6.45;2.10;;;;;;;22.34;36.26;99690.56;4421986;32;35649;-59
2022/05/03 12:30:44;;;;;;;4.20;2.25;;;;;;;22.65;37.23;99689.53;4421355;32;34141;-60